Time;durP1;ratioP1;P1;durP2;ratioP2;P2;SDS_P1;SDS_P2;PMS_P1;PMS_P2;Temp;Humidity;BMP_temperature;BMP_pressure;BME280_temperature;BME280_humidity;BME280_pressure;Samples;Min_cycle;Max_cycle;Signal;HPM_P1;HPM_P2
2021/08/09 00:00:52;;;;;;;4.60;1.58;;;;;;;13.97;71.27;100065.25;5075447;28;20048;-47
2021/08/09 00:03:39;;;;;;;5.78;1.48;;;;;;;13.96;71.03;100072.78;5075605;28;20146;-46
2021/08/09 00:06:26;;;;;;;7.95;2.05;;;;;;;13.95;71.13;100064.84;5074049;28;20048;-43
2021/08/09 00:09:13;;;;;;;5.03;2.00;;;;;;;13.92;71.19;100071.16;5075696;28;20066;-43
2021/08/09 00:12:01;;;;;;;3.90;1.13;;;;;;;13.81;71.59;100064.72;5074489;28;20063;-49
2021/08/09 00:14:48;;;;;;;4.82;1.48;;;;;;;13.80;71.69;100066.69;5073439;28;20048;-42
2021/08/09 00:17:35;;;;;;;4.60;1.83;;;;;;;13.77;71.75;100070.22;5075878;28;20780;-44
2021/08/09 00:20:22;;;;;;;4.53;1.73;;;;;;;13.72;72.15;100073.34;5060590;28;20052;-43
2021/08/09 00:23:09;;;;;;;4.55;1.38;;;;;;;13.78;71.78;100071.03;5073768;28;20595;-46
2021/08/09 00:25:56;;;;;;;4.28;2.67;;;;;;;13.70;72.13;100069.38;5074138;28;20896;-42
2021/08/09 00:28:43;;;;;;;3.50;1.30;;;;;;;13.67;72.08;100070.13;5075361;28;20063;-42
2021/08/09 00:31:30;;;;;;;7.28;2.83;;;;;;;13.67;72.20;100075.69;5061150;28;20663;-46
2021/08/09 00:34:19;;;;;;;4.90;1.75;;;;;;;13.66;72.20;100074.09;5074177;28;20056;-48
2021/08/09 00:37:07;;;;;;;2.60;1.80;;;;;;;13.62;72.11;100068.50;5073790;28;20446;-44
2021/08/09 00:39:54;;;;;;;2.47;1.13;;;;;;;13.55;72.38;100071.22;5074213;28;20036;-43
2021/08/09 00:42:41;;;;;;;5.07;1.33;;;;;;;13.54;72.63;100068.78;5071936;28;20048;-46
2021/08/09 00:45:28;;;;;;;2.35;1.20;;;;;;;13.55;72.44;100068.44;5074097;28;20048;-46
2021/08/09 00:48:15;;;;;;;2.45;1.27;;;;;;;13.57;72.28;100070.81;5074151;28;20048;-43
2021/08/09 00:51:04;;;;;;;2.95;1.02;;;;;;;13.57;72.50;100059.69;5073380;28;20052;-44
2021/08/09 00:53:51;;;;;;;4.43;1.27;;;;;;;13.48;72.67;100068.34;5074325;28;20559;-43
2021/08/09 00:56:40;;;;;;;4.38;1.45;;;;;;;13.43;73.08;100061.16;5074380;28;20230;-43
2021/08/09 00:59:30;;;;;;;6.25;1.05;;;;;;;13.43;72.83;100061.16;5074479;28;20051;-43
2021/08/09 01:02:19;;;;;;;5.20;1.70;;;;;;;13.48;72.76;100073.91;5071698;28;20831;-42
2021/08/09 01:05:09;;;;;;;1.92;1.20;;;;;;;13.42;72.94;100065.09;5073975;28;20770;-45
2021/08/09 01:08:20;;;;;;;4.88;1.00;;;;;;;13.33;73.90;100066.59;5075407;28;20595;-43
2021/08/09 01:11:10;;;;;;;1.85;1.05;;;;;;;13.30;73.53;100075.69;5074193;28;20044;-43
2021/08/09 01:14:03;;;;;;;3.72;1.30;;;;;;;13.29;73.97;100074.09;5072786;28;20063;-47
2021/08/09 01:16:50;;;;;;;4.32;1.40;;;;;;;13.30;73.66;100079.28;5073985;28;20075;-45
2021/08/09 01:19:56;;;;;;;7.85;3.20;;;;;;;13.31;73.66;100074.50;5073533;28;20055;-43
2021/08/09 01:23:07;;;;;;;2.97;1.00;;;;;;;13.32;73.35;100076.09;5073504;28;20493;-46
2021/08/09 01:26:07;;;;;;;5.93;1.60;;;;;;;13.27;73.55;100079.22;5072392;28;20052;-44
2021/08/09 01:28:58;;;;;;;3.85;1.65;;;;;;;13.20;73.92;100073.59;5073340;28;20056;-45
2021/08/09 01:31:47;;;;;;;7.95;1.92;;;;;;;13.18;73.83;100076.75;5072988;28;20044;-43
2021/08/09 01:34:35;;;;;;;6.40;1.38;;;;;;;13.20;73.98;100068.84;5077708;28;20068;-44
2021/08/09 01:37:23;;;;;;;3.15;1.23;;;;;;;13.23;73.79;100081.16;5077320;28;20485;-44
2021/08/09 01:40:12;;;;;;;15.25;3.13;;;;;;;13.21;73.94;100075.97;5077590;28;20050;-43
2021/08/09 01:43:00;;;;;;;4.95;1.20;;;;;;;13.21;73.95;100075.19;5076838;28;20075;-46
2021/08/09 01:45:48;;;;;;;4.75;1.58;;;;;;;13.19;74.14;100066.41;5076135;28;20052;-43
2021/08/09 01:48:35;;;;;;;5.32;1.33;;;;;;;13.18;74.33;100071.19;5077605;28;20867;-44
2021/08/09 01:51:23;;;;;;;2.58;1.38;;;;;;;13.18;74.16;100070.38;5077545;28;20044;-46
2021/08/09 01:54:10;;;;;;;2.55;1.70;;;;;;;13.17;74.23;100066.00;5077474;28;20052;-51
2021/08/09 01:56:58;;;;;;;3.38;1.65;;;;;;;13.17;74.22;100068.78;5076734;28;20052;-43
2021/08/09 01:59:47;;;;;;;4.88;1.42;;;;;;;13.15;74.39;100071.16;5076924;28;20040;-45
2021/08/09 02:02:34;;;;;;;6.30;2.70;;;;;;;13.13;74.63;100065.16;5076254;28;20055;-44
2021/08/09 02:05:23;;;;;;;6.38;1.25;;;;;;;13.09;74.83;100064.31;5074805;28;20052;-43
2021/08/09 02:08:14;;;;;;;2.58;0.95;;;;;;;13.08;74.99;100059.94;5077271;28;20473;-44
2021/08/09 02:11:10;;;;;;;5.97;1.20;;;;;;;13.08;75.09;100066.28;5062708;28;20044;-48
2021/08/09 02:14:03;;;;;;;9.02;1.38;;;;;;;13.07;75.28;100070.25;5076169;28;20044;-44
2021/08/09 02:17:10;;;;;;;4.75;2.40;;;;;;;13.05;75.70;100066.22;5075411;28;20069;-44
2021/08/09 02:20:01;;;;;;;5.88;2.95;;;;;;;13.04;75.36;100070.97;5075339;28;20052;-46
2021/08/09 02:22:52;;;;;;;4.82;1.60;;;;;;;13.02;75.48;100064.19;5076560;28;20044;-43
2021/08/09 02:25:42;;;;;;;3.30;1.33;;;;;;;13.00;75.58;100064.56;5075675;28;20056;-43
2021/08/09 02:28:32;;;;;;;9.73;2.53;;;;;;;12.96;75.50;100072.06;5076874;28;20432;-44
2021/08/09 02:31:22;;;;;;;2.55;1.00;;;;;;;12.95;76.20;100055.75;5076220;28;20051;-47
2021/08/09 02:34:12;;;;;;;7.20;1.67;;;;;;;12.91;76.16;100052.16;5075773;28;20090;-42
2021/08/09 02:37:05;;;;;;;3.92;1.13;;;;;;;12.89;76.57;100057.28;5062066;28;20066;-45
2021/08/09 02:39:53;;;;;;;5.93;1.27;;;;;;;12.92;76.13;100053.75;5076896;28;20497;-45
2021/08/09 02:42:41;;;;;;;3.78;1.00;;;;;;;12.92;75.96;100050.97;5063176;28;20059;-46
2021/08/09 02:45:28;;;;;;;2.60;1.10;;;;;;;12.89;76.10;100057.28;5074916;28;20162;-49
2021/08/09 02:48:17;;;;;;;1.95;1.10;;;;;;;12.89;76.50;100058.09;5077643;28;20055;-43
2021/08/09 02:51:05;;;;;;;5.05;1.17;;;;;;;12.91;76.15;100061.28;5079219;28;20503;-45
2021/08/09 02:53:53;;;;;;;1.33;0.90;;;;;;;12.90;76.38;100058.88;5076639;28;20044;-48
2021/08/09 02:56:40;;;;;;;7.85;2.28;;;;;;;12.89;76.58;100054.50;5076756;28;20412;-44
2021/08/09 02:59:27;;;;;;;10.05;2.67;;;;;;;12.94;76.30;100059.72;5075510;28;20060;-47
2021/08/09 03:02:17;;;;;;;2.30;0.90;;;;;;;12.96;76.42;100051.81;5075221;28;20055;-42
2021/08/09 03:05:08;;;;;;;4.03;1.40;;;;;;;12.94;76.27;100054.97;5075691;28;20059;-45
2021/08/09 03:07:57;;;;;;;2.08;0.93;;;;;;;12.95;76.63;100055.75;5076513;28;20051;-45
2021/08/09 03:10:44;;;;;;;1.58;1.10;;;;;;;12.97;76.42;100053.44;5076554;28;20052;-44
2021/08/09 03:13:31;;;;;;;6.55;1.40;;;;;;;12.97;76.54;100064.53;5075259;28;20048;-42
2021/08/09 03:16:18;;;;;;;1.08;0.80;;;;;;;12.98;76.25;100066.94;5076384;28;20058;-45
2021/08/09 03:19:05;;;;;;;6.55;1.35;;;;;;;12.98;76.34;100063.34;5074709;28;20071;-43
2021/08/09 03:21:54;;;;;;;5.35;1.90;;;;;;;12.99;76.31;100065.75;5075049;28;20052;-42
2021/08/09 03:24:42;;;;;;;2.40;1.00;;;;;;;12.98;76.37;100066.13;5074014;28;20059;-45
2021/08/09 03:27:29;;;;;;;6.35;3.17;;;;;;;12.96;76.47;100060.97;5073765;28;20036;-44
2021/08/09 03:30:16;;;;;;;5.20;1.23;;;;;;;12.92;76.76;100059.31;5074862;28;20039;-45
2021/08/09 03:33:03;;;;;;;5.53;1.10;;;;;;;12.87;76.86;100060.44;5076700;28;20044;-43
2021/08/09 03:35:50;;;;;;;4.18;1.10;;;;;;;12.90;76.75;100069.97;5072858;28;20052;-47
2021/08/09 03:38:37;;;;;;;3.13;1.75;;;;;;;12.88;76.69;100064.00;5076373;28;20043;-43
2021/08/09 03:41:25;;;;;;;1.17;0.90;;;;;;;12.90;76.70;100072.75;5075133;28;20052;-44
2021/08/09 03:44:13;;;;;;;2.13;0.88;;;;;;;12.90;76.74;100069.97;5076282;28;20528;-47
2021/08/09 03:47:00;;;;;;;2.08;0.90;;;;;;;12.88;76.87;100072.34;5075570;28;20079;-45
2021/08/09 03:49:47;;;;;;;7.60;1.63;;;;;;;12.88;76.95;100078.72;5078008;28;20048;-44
2021/08/09 03:52:34;;;;;;;6.43;0.80;;;;;;;12.87;76.92;100076.31;5074834;28;20055;-42
2021/08/09 03:55:22;;;;;;;5.20;1.33;;;;;;;12.87;76.90;100063.22;5075406;28;20505;-43
2021/08/09 03:58:09;;;;;;;2.95;1.55;;;;;;;12.86;76.83;100067.19;5061481;28;20060;-45
2021/08/09 04:00:56;;;;;;;3.67;0.80;;;;;;;12.87;76.83;100081.88;5073972;28;20523;-44
2021/08/09 04:03:43;;;;;;;2.60;0.95;;;;;;;12.87;76.95;100073.53;5076618;28;20287;-44
2021/08/09 04:06:30;;;;;;;2.80;1.33;;;;;;;12.88;76.96;100077.91;5074804;28;20051;-45
2021/08/09 04:09:17;;;;;;;6.47;1.08;;;;;;;12.88;76.92;100067.59;5078106;28;20048;-43
2021/08/09 04:12:04;;;;;;;3.17;0.80;;;;;;;12.88;77.03;100080.69;5075446;28;20052;-53
2021/08/09 04:14:52;;;;;;;2.92;1.08;;;;;;;12.88;77.00;100072.34;5076763;28;20059;-46
2021/08/09 04:17:42;;;;;;;4.25;0.88;;;;;;;12.84;77.25;100073.09;5076407;28;20508;-45
2021/08/09 04:20:29;;;;;;;1.85;1.10;;;;;;;12.86;77.23;100074.72;5078156;28;20043;-43
2021/08/09 04:23:16;;;;;;;3.50;0.93;;;;;;;12.89;77.17;100080.31;5076670;28;20051;-44
2021/08/09 04:26:03;;;;;;;3.20;0.98;;;;;;;12.92;77.32;100078.75;5075966;28;20580;-45
2021/08/09 04:28:50;;;;;;;3.38;0.95;;;;;;;12.93;77.54;100075.59;5060851;28;20048;-43
2021/08/09 04:31:43;;;;;;;1.38;0.73;;;;;;;12.97;77.69;100076.47;5075779;28;20036;-44
2021/08/09 04:34:30;;;;;;;3.63;0.93;;;;;;;12.98;77.54;100078.03;5075828;28;20055;-45
2021/08/09 04:37:19;;;;;;;2.67;0.73;;;;;;;13.01;77.86;100076.47;5076123;28;20059;-45
2021/08/09 04:40:09;;;;;;;5.82;1.25;;;;;;;13.03;77.73;100077.72;5075763;28;20058;-47
2021/08/09 04:42:57;;;;;;;3.95;0.82;;;;;;;13.09;78.04;100075.44;5073806;28;20086;-45
2021/08/09 04:45:45;;;;;;;2.22;0.88;;;;;;;13.09;77.73;100072.66;5075496;28;20059;-45
2021/08/09 04:48:33;;;;;;;2.67;1.35;;;;;;;13.12;77.79;100071.91;5074367;28;20424;-42
2021/08/09 04:51:20;;;;;;;2.72;1.10;;;;;;;13.14;77.92;100075.09;5076285;28;20182;-46
2021/08/09 04:54:07;;;;;;;2.17;0.85;;;;;;;13.13;77.86;100074.28;5076852;28;20060;-46
2021/08/09 04:56:54;;;;;;;3.15;0.90;;;;;;;13.15;77.96;100060.03;5072741;28;20083;-44
2021/08/09 04:59:41;;;;;;;1.70;1.05;;;;;;;13.15;77.84;100068.38;5075424;28;20052;-48
2021/08/09 05:02:28;;;;;;;2.38;1.17;;;;;;;13.15;78.00;100071.94;5074700;28;20405;-43
2021/08/09 05:05:15;;;;;;;3.60;1.00;;;;;;;13.14;77.97;100075.09;5076172;28;20191;-44
2021/08/09 05:08:03;;;;;;;2.88;1.10;;;;;;;13.15;78.13;100071.94;5076219;28;20481;-43
2021/08/09 05:10:50;;;;;;;2.10;1.00;;;;;;;13.20;78.01;100070.81;5079947;28;20052;-44
2021/08/09 05:13:37;;;;;;;2.92;1.70;;;;;;;13.22;78.48;100069.25;5062168;28;20056;-46
2021/08/09 05:16:24;;;;;;;5.38;1.45;;;;;;;13.24;78.34;100064.09;5079599;28;20048;-46
2021/08/09 05:19:12;;;;;;;7.25;1.55;;;;;;;13.30;78.22;100067.34;5079877;28;20055;-47
2021/08/09 05:21:59;;;;;;;4.03;0.75;;;;;;;13.33;78.22;100072.94;5077602;28;20036;-50
2021/08/09 05:24:47;;;;;;;3.30;1.02;;;;;;;13.36;78.22;100068.63;5080418;28;22758;-45
2021/08/09 05:27:34;;;;;;;3.40;1.33;;;;;;;13.40;78.08;100067.47;5077864;28;20170;-43
2021/08/09 05:30:21;;;;;;;2.67;1.10;;;;;;;13.45;78.12;100066.31;5078218;28;20055;-44
2021/08/09 05:33:09;;;;;;;2.90;0.93;;;;;;;13.51;78.26;100072.34;5078630;28;20136;-48
2021/08/09 05:35:56;;;;;;;3.40;1.20;;;;;;;13.53;78.07;100070.78;5078313;28;21443;-43
2021/08/09 05:38:44;;;;;;;4.10;1.10;;;;;;;13.55;78.34;100076.78;5079030;28;20148;-46
2021/08/09 05:41:32;;;;;;;1.90;0.82;;;;;;;13.60;77.96;100081.19;5080493;28;20502;-43
2021/08/09 05:44:21;;;;;;;3.13;0.90;;;;;;;13.62;78.22;100074.06;5078443;28;20051;-43
2021/08/09 05:47:08;;;;;;;2.65;1.02;;;;;;;13.65;78.26;100078.84;5078479;28;20044;-42
2021/08/09 05:49:56;;;;;;;3.28;0.90;;;;;;;13.69;78.25;100076.91;5079554;28;20043;-45
2021/08/09 05:52:43;;;;;;;3.83;1.13;;;;;;;13.72;78.13;100078.91;5080318;28;20048;-45
2021/08/09 05:55:32;;;;;;;2.55;1.25;;;;;;;13.75;78.05;100082.91;5078834;28;20059;-45
2021/08/09 05:58:19;;;;;;;7.75;1.15;;;;;;;13.78;78.17;100085.75;5078481;28;20048;-44
2021/08/09 06:01:06;;;;;;;3.85;0.70;;;;;;;13.81;77.94;100087.78;5080033;28;20048;-50
2021/08/09 06:03:54;;;;;;;2.42;0.93;;;;;;;13.85;77.97;100090.56;5081132;28;20868;-47
2021/08/09 06:06:42;;;;;;;5.53;1.27;;;;;;;13.87;78.13;100091.78;5078369;28;20261;-42
2021/08/09 06:09:29;;;;;;;4.00;1.20;;;;;;;13.88;78.13;100092.59;5080401;28;20052;-47
2021/08/09 06:12:16;;;;;;;2.95;0.90;;;;;;;13.91;78.13;100095.41;5081359;28;20055;-47
2021/08/09 06:15:05;;;;;;;3.05;1.08;;;;;;;13.91;78.31;100092.63;5078642;28;20116;-43
2021/08/09 06:17:53;;;;;;;3.35;0.70;;;;;;;13.90;78.28;100102.16;5079990;28;20193;-43
2021/08/09 06:20:40;;;;;;;2.15;1.23;;;;;;;13.91;78.29;100098.19;5078961;28;20056;-43
2021/08/09 06:23:27;;;;;;;2.55;1.02;;;;;;;13.95;78.37;100101.78;5079515;28;20124;-42
2021/08/09 06:26:14;;;;;;;1.73;0.95;;;;;;;13.99;78.27;100099.88;5078343;28;20390;-43
2021/08/09 06:29:01;;;;;;;4.93;2.50;;;;;;;14.00;78.07;100098.66;5079253;28;20051;-44
2021/08/09 06:31:48;;;;;;;3.10;1.13;;;;;;;14.02;78.03;100104.66;5079701;28;20067;-48
2021/08/09 06:34:35;;;;;;;2.08;1.33;;;;;;;14.08;78.19;100107.09;5077352;28;20087;-44
2021/08/09 06:37:27;;;;;;;1.42;0.90;;;;;;;14.09;78.08;100103.09;5078387;28;20075;-43
2021/08/09 06:40:14;;;;;;;1.75;0.90;;;;;;;14.11;77.85;100106.34;5078823;28;20052;-43
2021/08/09 06:43:03;;;;;;;6.47;1.23;;;;;;;14.13;78.24;100115.09;5077182;28;20054;-43
2021/08/09 06:45:50;;;;;;;5.05;1.00;;;;;;;14.15;78.06;100123.84;5077574;28;20048;-43
2021/08/09 06:48:37;;;;;;;12.82;2.80;;;;;;;14.14;78.31;100106.34;5078031;28;20056;-44
2021/08/09 06:51:24;;;;;;;3.33;1.42;;;;;;;14.14;78.26;100119.50;5076342;28;20556;-44
2021/08/09 06:54:13;;;;;;;3.95;1.58;;;;;;;14.13;78.49;100121.47;5078113;28;20052;-48
2021/08/09 06:57:00;;;;;;;2.40;1.65;;;;;;;14.09;78.80;100109.47;5077298;28;20047;-45
2021/08/09 06:59:47;;;;;;;5.20;1.83;;;;;;;14.08;79.06;100123.78;5078641;28;20138;-43
2021/08/09 07:02:34;;;;;;;3.88;1.52;;;;;;;14.07;79.34;100123.00;5076489;28;20063;-48
2021/08/09 07:05:21;;;;;;;4.22;1.50;;;;;;;14.06;79.46;100126.16;5077977;28;20047;-45
2021/08/09 07:08:08;;;;;;;2.70;1.27;;;;;;;14.06;79.60;100123.38;5079851;28;20124;-48
2021/08/09 07:10:55;;;;;;;4.90;1.77;;;;;;;14.00;80.00;100126.50;5071972;28;20553;-47
2021/08/09 07:13:43;;;;;;;2.72;1.67;;;;;;;14.01;80.21;100124.50;5077067;28;20055;-50
2021/08/09 07:16:30;;;;;;;5.13;1.80;;;;;;;14.04;80.33;100120.97;5078337;28;20048;-45
2021/08/09 07:19:18;;;;;;;7.80;1.55;;;;;;;14.07;80.57;100122.19;5078879;28;20409;-45
2021/08/09 07:22:06;;;;;;;1.70;1.42;;;;;;;14.08;80.54;100129.38;5078988;28;20170;-45
2021/08/09 07:24:53;;;;;;;4.45;1.58;;;;;;;14.11;80.57;100121.03;5077469;28;20059;-46
2021/08/09 07:27:41;;;;;;;4.78;1.85;;;;;;;14.10;80.74;100121.41;5080195;28;20040;-46
2021/08/09 07:30:28;;;;;;;4.32;1.45;;;;;;;14.09;80.97;100120.63;5077245;28;20773;-49
2021/08/09 07:33:15;;;;;;;7.25;1.30;;;;;;;14.13;80.69;100131.78;5073909;28;20104;-45
2021/08/09 07:36:05;;;;;;;8.93;1.63;;;;;;;14.10;80.86;100122.22;5036821;28;20637;-45
2021/08/09 07:38:52;;;;;;;9.73;1.95;;;;;;;14.11;80.83;100128.59;5036021;28;20748;-45
2021/08/09 07:41:39;;;;;;;2.40;1.20;;;;;;;14.14;80.85;100133.41;5036120;28;20053;-44
2021/08/09 07:44:26;;;;;;;4.25;1.73;;;;;;;14.20;81.03;100126.28;5037577;28;20072;-44
2021/08/09 07:47:15;;;;;;;3.25;1.60;;;;;;;14.27;81.05;100129.16;5037722;28;20135;-45
2021/08/09 07:50:02;;;;;;;3.05;1.60;;;;;;;14.33;81.09;100119.25;5036897;28;20049;-48
2021/08/09 07:52:50;;;;;;;4.18;1.45;;;;;;;14.37;80.97;100125.69;5037416;28;20159;-44
2021/08/09 07:55:37;;;;;;;3.70;1.75;;;;;;;14.34;81.12;100121.69;5037368;28;20056;-48
2021/08/09 07:58:24;;;;;;;4.47;1.80;;;;;;;14.35;81.25;100122.47;5037129;28;20159;-44
2021/08/09 08:01:13;;;;;;;3.72;1.67;;;;;;;14.31;81.42;100128.00;5035475;28;20671;-45
2021/08/09 08:04:00;;;;;;;2.17;1.65;;;;;;;14.28;81.55;100122.38;5036437;28;20091;-44
2021/08/09 08:06:47;;;;;;;3.20;1.83;;;;;;;14.24;81.63;100127.13;5037826;28;20811;-45
2021/08/09 08:09:35;;;;;;;6.70;1.90;;;;;;;14.22;81.53;100127.50;5035354;28;20045;-47
2021/08/09 08:12:22;;;;;;;2.33;2.13;;;;;;;14.22;81.73;100135.84;5034985;28;20589;-50
2021/08/09 08:15:10;;;;;;;5.53;2.30;;;;;;;14.23;82.04;100133.88;5037863;28;20055;-44
2021/08/09 08:17:57;;;;;;;2.30;1.88;;;;;;;14.29;82.02;100141.50;5038374;28;20048;-48
2021/08/09 08:20:47;;;;;;;4.65;2.05;;;;;;;14.33;82.00;100141.53;5038632;28;20656;-45
2021/08/09 08:23:34;;;;;;;1.63;1.50;;;;;;;14.36;82.23;100126.84;5036210;28;20049;-54
2021/08/09 08:26:21;;;;;;;3.90;1.58;;;;;;;14.43;81.98;100130.47;5034668;28;20052;-46
2021/08/09 08:29:09;;;;;;;3.08;1.40;;;;;;;14.53;82.08;100131.78;5030631;28;20053;-46
2021/08/09 08:31:56;;;;;;;4.38;2.20;;;;;;;14.61;81.76;100130.63;5031655;28;20470;-50
2021/08/09 08:35:08;;;;;;;3.75;2.15;;;;;;;14.70;82.74;100133.06;5054789;28;20420;-47
2021/08/09 08:37:56;;;;;;;4.13;1.83;;;;;;;14.73;82.31;100133.09;5070130;28;20416;-46
2021/08/09 08:40:49;;;;;;;4.07;1.85;;;;;;;14.77;82.23;100133.94;5074941;28;20052;-46
2021/08/09 08:43:37;;;;;;;1.58;1.33;;;;;;;14.78;81.96;100135.53;5072363;28;20048;-47
2021/08/09 08:46:24;;;;;;;3.28;1.42;;;;;;;14.84;81.84;100133.97;5072512;28;20050;-48
2021/08/09 08:49:15;;;;;;;4.63;1.45;;;;;;;14.93;81.96;100142.00;5058333;28;20052;-46
2021/08/09 08:52:04;;;;;;;3.40;1.30;;;;;;;14.94;81.67;100140.78;5077236;28;20056;-44
2021/08/09 08:54:52;;;;;;;4.53;1.50;;;;;;;14.95;81.61;100137.63;5075839;28;21152;-44
2021/08/09 08:57:39;;;;;;;3.30;1.17;;;;;;;14.99;81.52;100141.22;5072349;28;20134;-47
2021/08/09 09:00:26;;;;;;;2.00;1.55;;;;;;;15.03;81.13;100139.28;5071654;28;20131;-49
2021/08/09 09:03:17;;;;;;;5.18;1.45;;;;;;;15.11;81.14;100149.28;5075892;28;20590;-47
2021/08/09 09:06:06;;;;;;;3.92;2.45;;;;;;;15.17;81.01;100146.88;5074815;28;20048;-46
2021/08/09 09:08:54;;;;;;;5.10;1.00;;;;;;;15.23;80.85;100148.94;5072824;28;20177;-44
2021/08/09 09:11:41;;;;;;;1.50;1.20;;;;;;;15.33;80.84;100143.81;5073030;28;20048;-47
2021/08/09 09:14:30;;;;;;;1.88;1.30;;;;;;;15.38;80.70;100151.78;5070954;28;20138;-47
2021/08/09 09:17:32;;;;;;;3.35;1.42;;;;;;;15.37;80.68;100155.75;5066630;28;20105;-50
2021/08/09 09:20:28;;;;;;;1.58;1.20;;;;;;;15.29;80.22;100148.56;5072322;28;20055;-47
2021/08/09 09:23:18;;;;;;;2.40;1.30;;;;;;;15.23;80.11;100151.72;5071303;28;20056;-50
2021/08/09 09:26:23;;;;;;;2.05;1.42;;;;;;;15.20;79.86;100152.50;5071662;28;20044;-43
2021/08/09 09:29:12;;;;;;;2.17;1.02;;;;;;;15.27;79.87;100160.88;5073056;28;20047;-50
2021/08/09 09:32:22;;;;;;;3.17;1.30;;;;;;;15.34;79.70;100162.91;5067731;28;20900;-45
2021/08/09 09:35:09;;;;;;;3.58;1.13;;;;;;;15.36;79.61;100149.38;5072537;28;20117;-47
2021/08/09 09:37:56;;;;;;;4.57;1.30;;;;;;;15.40;79.63;100154.97;5073357;28;20082;-48
2021/08/09 09:40:44;;;;;;;2.22;1.00;;;;;;;15.43;79.34;100154.19;5074094;28;20062;-52
2021/08/09 09:43:39;;;;;;;1.92;1.20;;;;;;;15.51;79.48;100156.66;5072511;28;20087;-44
2021/08/09 09:46:29;;;;;;;4.07;1.20;;;;;;;15.62;79.32;100156.72;5071088;28;20226;-43
2021/08/09 09:49:35;;;;;;;2.75;1.58;;;;;;;15.69;78.70;100163.09;5072570;28;20044;-42
2021/08/09 09:52:35;;;;;;;2.28;1.20;;;;;;;15.69;78.68;100165.09;5072801;28;20052;-47
2021/08/09 09:55:23;;;;;;;1.55;1.08;;;;;;;15.78;78.77;100155.16;5075379;28;20052;-48
2021/08/09 09:58:10;;;;;;;2.22;1.08;;;;;;;15.85;78.77;100159.97;5076039;28;20059;-49
2021/08/09 10:01:01;;;;;;;2.03;1.35;;;;;;;15.91;77.90;100158.38;5076428;28;20528;-46
2021/08/09 10:03:48;;;;;;;3.10;1.80;;;;;;;15.97;78.19;100159.59;5077563;28;20052;-46
2021/08/09 10:06:37;;;;;;;1.73;1.30;;;;;;;16.04;78.23;100162.41;5076515;28;20056;-51
2021/08/09 10:09:24;;;;;;;3.22;1.20;;;;;;;16.08;77.83;100174.38;5046773;28;20478;-43
2021/08/09 10:12:12;;;;;;;3.22;1.50;;;;;;;16.08;77.72;100157.63;5077599;28;20180;-46
2021/08/09 10:15:00;;;;;;;1.67;1.05;;;;;;;16.09;77.56;100167.59;5061835;28;20048;-43
2021/08/09 10:17:50;;;;;;;4.68;1.63;;;;;;;16.18;77.38;100168.00;5076924;28;20872;-43
2021/08/09 10:20:37;;;;;;;3.05;1.30;;;;;;;16.23;77.48;100175.22;5076638;28;20713;-48
2021/08/09 10:23:53;;;;;;;2.85;1.80;;;;;;;16.27;76.97;100165.63;5077101;28;20044;-45
2021/08/09 10:26:48;;;;;;;4.60;1.80;;;;;;;16.34;77.00;100176.78;5067965;28;20515;-46
2021/08/09 10:29:59;;;;;;;3.42;1.50;;;;;;;16.39;76.53;100172.81;5076572;28;20067;-47
2021/08/09 10:32:53;;;;;;;3.55;1.05;;;;;;;16.47;76.49;100174.41;5075949;28;20640;-43
2021/08/09 10:35:46;;;;;;;2.95;1.30;;;;;;;16.69;76.41;100178.84;5074433;28;20052;-46
2021/08/09 10:38:35;;;;;;;4.05;1.42;;;;;;;17.14;76.25;100173.56;5074667;28;20054;-50
2021/08/09 10:41:37;;;;;;;2.80;0.90;;;;;;;17.52;74.02;100184.66;5075092;28;20093;-49
2021/08/09 10:44:26;;;;;;;1.20;0.98;;;;;;;18.09;75.23;100182.41;5077789;28;20047;-52
2021/08/09 10:47:45;;;;;;;3.15;1.33;;;;;;;18.66;72.83;100184.81;5077052;28;20070;-45
2021/08/09 10:50:39;;;;;;;3.30;1.27;;;;;;;18.72;73.41;100183.97;5072665;28;20044;-47
2021/08/09 10:53:27;;;;;;;2.63;1.08;;;;;;;18.59;72.68;100182.88;5076438;28;20051;-47
2021/08/09 10:56:45;;;;;;;4.40;1.35;;;;;;;18.55;70.40;100184.13;5079254;28;20466;-51
2021/08/09 10:59:40;;;;;;;1.10;1.00;;;;;;;18.42;70.70;100192.19;5068018;28;20056;-45
2021/08/09 11:02:35;;;;;;;1.63;1.02;;;;;;;18.32;71.15;100187.44;5073010;28;20196;-51
2021/08/09 11:05:22;;;;;;;2.63;1.00;;;;;;;18.24;71.19;100194.31;5060288;28;20048;-45
2021/08/09 11:08:15;;;;;;;1.13;1.02;;;;;;;18.44;70.37;100184.16;5062419;28;20058;-50
2021/08/09 11:11:04;;;;;;;2.97;0.90;;;;;;;18.55;70.77;100201.75;5075640;28;20150;-44
2021/08/09 11:13:53;;;;;;;2.92;1.30;;;;;;;18.66;70.76;100185.63;5076026;28;20503;-45
2021/08/09 11:16:40;;;;;;;2.58;0.95;;;;;;;18.72;70.18;100195.19;5073302;28;20056;-49
2021/08/09 11:19:27;;;;;;;4.10;1.10;;;;;;;18.87;70.04;100189.44;5070113;28;20047;-47
2021/08/09 11:22:18;;;;;;;3.15;1.38;;;;;;;19.01;69.73;100192.91;5075718;28;20142;-43
2021/08/09 11:25:35;;;;;;;1.58;0.80;;;;;;;19.18;68.21;100199.56;5074850;28;20067;-46
2021/08/09 11:28:23;;;;;;;4.05;0.80;;;;;;;19.24;69.43;100197.91;5075766;28;20493;-44
2021/08/09 11:31:11;;;;;;;2.22;0.90;;;;;;;19.24;68.85;100203.50;5072690;28;20135;-45
2021/08/09 11:34:06;;;;;;;2.05;0.65;;;;;;;19.40;67.55;100200.97;5075142;28;20055;-43
2021/08/09 11:37:02;;;;;;;4.57;0.68;;;;;;;19.58;67.80;100201.56;5074682;28;20052;-49
2021/08/09 11:39:49;;;;;;;1.40;0.90;;;;;;;19.72;68.24;100198.59;5074737;28;20610;-44
2021/08/09 11:42:49;;;;;;;2.05;1.02;;;;;;;19.76;66.68;100207.75;5072804;28;20428;-47
2021/08/09 11:45:38;;;;;;;1.23;0.90;;;;;;;19.74;67.72;100213.00;5076624;28;21415;-43
2021/08/09 11:48:30;;;;;;;2.70;1.17;;;;;;;19.66;66.86;100205.06;5073791;28;20044;-46
2021/08/09 11:51:23;;;;;;;4.50;1.15;;;;;;;19.64;66.31;100199.88;5072685;28;20048;-51
2021/08/09 11:54:10;;;;;;;1.95;1.20;;;;;;;19.49;66.79;100201.25;5073520;28;20068;-49
2021/08/09 11:56:57;;;;;;;1.00;0.65;;;;;;;19.36;66.70;100189.75;5071564;28;20048;-47
2021/08/09 11:59:50;;;;;;;1.10;1.00;;;;;;;19.48;66.31;100191.25;5075062;28;21553;-45
2021/08/09 12:03:15;;;;;;;3.00;0.85;;;;;;;19.53;66.57;100196.41;5073621;28;20156;-48
2021/08/09 12:06:25;;;;;;;2.67;1.10;;;;;;;19.51;65.26;100195.22;5072652;28;20089;-45
2021/08/09 12:09:16;;;;;;;2.83;1.00;;;;;;;19.51;66.12;100195.22;5077403;28;20048;-47
2021/08/09 12:12:05;;;;;;;4.18;1.00;;;;;;;19.47;66.64;100194.47;5076536;28;20051;-45
2021/08/09 12:15:02;;;;;;;4.40;1.65;;;;;;;19.38;65.56;100190.13;5072068;28;20394;-44
2021/08/09 12:18:02;;;;;;;1.30;1.00;;;;;;;19.25;65.01;100193.88;5072021;28;20389;-47
2021/08/09 12:21:09;;;;;;;4.03;1.33;;;;;;;19.03;66.08;100187.69;5071359;28;20052;-50
2021/08/09 12:23:58;;;;;;;2.13;0.95;;;;;;;18.93;66.06;100193.41;5073999;28;20063;-46
2021/08/09 12:26:45;;;;;;;1.23;0.70;;;;;;;18.82;66.08;100187.91;5072638;28;20047;-43
2021/08/09 12:29:32;;;;;;;1.05;0.73;;;;;;;18.75;65.80;100197.16;5073104;28;20055;-43
2021/08/09 12:32:22;;;;;;;1.80;1.05;;;;;;;18.66;66.51;100205.25;5073459;28;20130;-49
2021/08/09 12:35:11;;;;;;;3.70;1.05;;;;;;;18.24;68.23;100227.97;5059587;28;20055;-45
2021/08/09 12:37:58;;;;;;;2.45;0.70;;;;;;;17.69;69.76;100238.19;5059426;28;20090;-49
2021/08/09 12:40:56;;;;;;;1.13;0.57;;;;;;;17.49;70.18;100219.06;5059100;28;20051;-47
2021/08/09 12:43:43;;;;;;;0.88;0.43;;;;;;;17.47;70.93;100215.84;5074263;28;20052;-54
2021/08/09 12:46:31;;;;;;;3.72;0.60;;;;;;;17.61;71.14;100221.44;5057479;28;20104;-50
2021/08/09 12:49:28;;;;;;;1.90;1.30;;;;;;;17.76;73.11;100215.78;5073080;28;20048;-50
2021/08/09 12:52:15;;;;;;;3.20;1.10;;;;;;;17.96;72.01;100209.28;5073662;28;20516;-44
2021/08/09 12:55:02;;;;;;;2.88;1.00;;;;;;;18.17;72.09;100216.78;5074803;28;20048;-50
2021/08/09 12:57:52;;;;;;;2.25;1.52;;;;;;;18.26;72.05;100211.53;5059177;28;20047;-50
2021/08/09 13:00:39;;;;;;;1.50;0.90;;;;;;;18.30;71.94;100211.47;5074009;28;20044;-47
2021/08/09 13:03:28;;;;;;;0.90;0.90;;;;;;;18.44;71.94;100211.41;5074381;28;20066;-47
2021/08/09 13:06:15;;;;;;;2.03;0.80;;;;;;;18.53;72.13;100215.34;5071927;28;20051;-49
2021/08/09 13:09:03;;;;;;;0.88;0.60;;;;;;;18.53;72.06;100212.53;5073289;28;20051;-46